createdAt,value
2018-12-12T00:06:22.730Z,8.60
2018-12-12T00:16:25.540Z,8.13
2018-12-12T00:26:27.991Z,7.80
2018-12-12T00:36:30.472Z,9.60
2018-12-12T00:46:33.388Z,9.83
2018-12-12T00:56:35.842Z,8.40
2018-12-12T01:06:38.406Z,9.47
2018-12-12T01:16:40.852Z,9.43
2018-12-12T01:26:43.355Z,8.87
2018-12-12T01:36:45.826Z,9.03
2018-12-12T01:46:48.299Z,9.30
2018-12-12T01:56:50.768Z,9.50
2018-12-12T02:06:53.268Z,8.70
2018-12-12T02:16:55.836Z,9.93
2018-12-12T02:26:58.284Z,9.73
2018-12-12T02:37:00.754Z,8.93
2018-12-12T02:47:03.217Z,9.00
2018-12-12T02:57:05.685Z,9.67
2018-12-12T03:07:08.139Z,9.33
2018-12-12T03:17:10.605Z,10.80
2018-12-12T03:27:13.105Z,9.13
2018-12-12T03:37:15.559Z,9.20
2018-12-12T03:47:18.016Z,9.27
2018-12-12T03:57:20.488Z,9.67
2018-12-12T04:07:23.043Z,9.73
2018-12-12T04:17:25.512Z,9.20
2018-12-12T04:27:28.024Z,10.17
2018-12-12T04:37:30.499Z,9.10
2018-12-12T04:47:32.967Z,9.90
2018-12-12T04:57:35.471Z,10.47
2018-12-12T05:07:38.002Z,11.23
2018-12-12T05:17:40.477Z,11.37
2018-12-12T05:27:42.942Z,10.90
2018-12-12T05:37:50.685Z,11.97
2018-12-12T05:47:49.887Z,9.53
2018-12-12T05:57:52.367Z,8.40
2018-12-12T06:07:54.948Z,7.73
2018-12-12T06:17:57.419Z,7.83
2018-12-12T06:27:59.902Z,7.43
2018-12-12T06:38:02.515Z,12.40
2018-12-12T06:48:05.024Z,7.70
2018-12-12T07:11:20.528Z,8.50
2018-12-12T07:21:22.992Z,7.50
2018-12-12T07:31:25.499Z,8.77
2018-12-12T07:41:28.399Z,7.20
2018-12-12T07:51:30.955Z,6.10
2018-12-12T08:11:01.842Z,6.53
2018-12-12T08:21:04.355Z,7.33
2018-12-12T08:31:06.877Z,6.33
2018-12-12T08:41:09.342Z,5.53
2018-12-12T08:51:11.800Z,6.83
2018-12-12T09:01:14.359Z,7.37
2018-12-12T09:11:16.842Z,7.17
2018-12-12T09:21:19.292Z,7.37
2018-12-12T09:31:21.791Z,6.80
2018-12-12T09:41:24.257Z,7.90
2018-12-12T09:51:26.721Z,8.30
2018-12-12T10:01:29.192Z,8.40
2018-12-12T10:11:31.743Z,8.70
2018-12-12T10:21:34.280Z,8.60
2018-12-12T10:31:36.789Z,7.20
2018-12-12T10:41:39.260Z,3.40
2018-12-12T10:51:41.715Z,3.40
2018-12-12T11:01:47.352Z,2.90
2018-12-12T11:11:49.812Z,2.80
2018-12-12T11:21:52.359Z,3.17
2018-12-12T11:31:54.815Z,3.40
2018-12-12T11:41:57.282Z,3.30
2018-12-12T11:52:00.021Z,2.90
2018-12-12T12:02:02.531Z,3.03
2018-12-12T12:12:05.007Z,3.50
2018-12-12T12:22:07.469Z,3.20
2018-12-12T12:32:09.931Z,7.90
2018-12-12T12:42:12.416Z,17.50
2018-12-12T12:52:15.814Z,4.43
2018-12-12T13:02:18.384Z,3.97
2018-12-12T13:12:20.905Z,3.83
2018-12-12T13:22:23.552Z,3.30
2018-12-12T13:32:26.009Z,3.20
2018-12-12T13:42:28.463Z,3.17
2018-12-12T13:52:30.935Z,3.37
2018-12-12T14:02:33.376Z,3.80
2018-12-12T14:12:35.839Z,4.20
2018-12-12T14:22:38.307Z,3.53
2018-12-12T14:32:40.812Z,4.30
2018-12-12T14:42:43.273Z,3.93
2018-12-12T14:52:45.979Z,2.93
2018-12-12T15:02:48.583Z,3.00
2018-12-12T15:12:51.124Z,3.53
2018-12-12T15:22:53.576Z,2.70
2018-12-12T15:32:56.158Z,2.70
2018-12-12T15:48:56.079Z,2.73
2018-12-12T15:58:58.747Z,2.73
2018-12-12T16:09:01.423Z,3.33
2018-12-12T16:19:03.941Z,3.20
2018-12-12T16:29:06.621Z,3.10
2018-12-12T16:39:09.076Z,3.40
2018-12-12T16:49:11.721Z,3.40
2018-12-12T16:59:14.210Z,3.80
2018-12-12T17:09:16.924Z,3.83
2018-12-12T17:19:19.397Z,3.90
2018-12-12T17:29:22.031Z,3.80
2018-12-12T17:39:24.500Z,4.43
2018-12-12T17:49:26.966Z,3.87
2018-12-12T17:59:29.620Z,4.80
2018-12-12T18:09:32.111Z,4.30
2018-12-12T18:19:34.779Z,4.97
2018-12-12T18:29:37.256Z,5.10
2018-12-12T18:39:39.712Z,4.73
2018-12-12T18:49:42.344Z,5.20
2018-12-12T19:00:52.075Z,5.40
2018-12-12T19:10:54.531Z,5.83
2018-12-12T19:21:00.116Z,6.20
2018-12-12T19:31:01.803Z,7.20
2018-12-12T19:41:04.357Z,6.83
2018-12-12T19:51:06.819Z,6.77
2018-12-12T20:01:09.358Z,7.03
2018-12-12T20:11:11.820Z,7.23
2018-12-12T20:21:14.287Z,7.60
2018-12-12T20:31:16.932Z,6.70
2018-12-12T20:41:19.403Z,7.90
2018-12-12T20:51:21.868Z,7.20
2018-12-12T21:01:24.489Z,6.87
2018-12-12T21:11:26.956Z,6.97
2018-12-12T21:21:29.424Z,5.83
2018-12-12T21:31:32.092Z,8.20
2018-12-12T21:41:34.549Z,6.43
2018-12-12T21:51:37.016Z,7.33
2018-12-12T22:01:39.668Z,7.70
2018-12-12T22:11:42.118Z,8.20
2018-12-12T22:21:44.580Z,8.30
2018-12-12T22:31:47.243Z,6.33
2018-12-12T22:44:30.333Z,6.87
2018-12-12T22:54:32.815Z,6.90
2018-12-12T23:04:35.783Z,7.43
2018-12-12T23:14:38.255Z,7.87
2018-12-12T23:24:40.751Z,8.40
2018-12-12T23:34:43.329Z,8.33
2018-12-12T23:44:45.795Z,7.53
2018-12-12T23:54:48.267Z,7.67
